Time;durP1;ratioP1;P1;durP2;ratioP2;P2;SDS_P1;SDS_P2;PMS_P1;PMS_P2;Temp;Humidity;BMP_temperature;BMP_pressure;BME280_temperature;BME280_humidity;BME280_pressure;Samples;Min_cycle;Max_cycle;Signal;HPM_P1;HPM_P2
2023/11/12 09:42:48;;;;;;;;;1.00;1.00;;;;;22.03;41.48;100187.16;5662416;23;46070;-72
2023/11/12 09:45:14;;;;;;;;;0.00;0.00;;;;;21.94;42.52;100167.97;4961426;28;46172;-75
2023/11/12 09:47:51;;;;;;;;;2.00;1.00;;;;;22.04;41.55;100176.38;4952725;28;45490;-74
2023/11/12 09:50:16;;;;;;;;;2.00;1.00;;;;;21.96;41.83;100168.59;4954463;28;45425;-73
2023/11/12 09:52:43;;;;;;;;;4.00;1.00;;;;;22.03;41.89;100176.56;4955898;28;45239;-75
2023/11/12 09:55:10;;;;;;;;;4.00;1.67;;;;;21.98;41.67;100169.22;4955486;28;46386;-75
2023/11/12 09:57:36;;;;;;;;;0.00;0.00;;;;;22.03;41.89;100173.91;4956899;28;45290;-73
2023/11/12 10:00:03;;;;;;;;;2.33;1.00;;;;;22.04;42.55;100164.97;4956652;28;45410;-74
2023/11/12 10:02:31;;;;;;;;;1.00;0.00;;;;;22.04;42.24;100167.63;4954819;28;45285;-73
2023/11/12 10:04:58;;;;;;;;;1.00;1.00;;;;;22.06;41.98;100179.66;4956524;28;47648;-72
2023/11/12 10:07:25;;;;;;;;;0.33;0.33;;;;;21.92;42.84;100162.88;4957361;28;45355;-73
2023/11/12 10:09:50;;;;;;;;;1.00;1.00;;;;;22.00;42.94;100185.72;4956549;28;45421;-72
2023/11/12 10:12:15;;;;;;;;;1.00;1.00;;;;;21.99;42.50;100185.94;4956826;28;45382;-73
2023/11/12 10:14:42;;;;;;;;;3.00;1.00;;;;;22.11;42.69;100199.44;4956337;28;45427;-73
2023/11/12 10:17:10;;;;;;;;;1.00;1.00;;;;;22.08;42.81;100190.03;4957232;28;45445;-74
2023/11/12 10:19:37;;;;;;;;;3.00;2.00;;;;;22.07;42.84;100199.00;4954052;28;45445;-75
2023/11/12 10:22:03;;;;;;;;;2.67;2.67;;;;;22.13;42.08;100213.28;4956736;28;45219;-73
2023/11/12 10:24:30;;;;;;;;;3.00;2.00;;;;;22.09;41.55;100212.88;4956556;28;45495;-71
2023/11/12 10:27:03;;;;;;;;;1.00;1.00;;;;;22.07;41.99;100225.47;4971630;28;45936;-74
2023/11/12 10:29:29;;;;;;;;;2.00;1.00;;;;;21.97;42.18;100204.66;4956316;28;45305;-74
2023/11/12 10:31:54;;;;;;;;;2.00;0.00;;;;;22.04;42.32;100213.44;4956769;28;45249;-74
2023/11/12 10:34:22;;;;;;;;;4.00;1.00;;;;;22.08;42.45;100213.88;4956284;28;46114;-74
2023/11/12 10:37:09;;;;;;;;;0.00;0.00;;;;;22.10;42.24;100216.31;4956647;28;45412;-74
2023/11/12 10:39:40;;;;;;;;;1.00;1.00;;;;;22.12;42.67;100222.28;4956384;28;45493;-79
2023/11/12 10:42:26;;;;;;;;;1.00;1.00;;;;;22.12;42.69;100220.41;4956497;28;45477;-75
2023/11/12 10:44:56;;;;;;;;;2.67;0.67;;;;;22.11;42.23;100232.03;4975251;28;47220;-75
2023/11/12 10:47:29;;;;;;;;;1.00;1.00;;;;;22.10;43.06;100233.03;4974366;28;45381;-75
2023/11/12 10:49:55;;;;;;;;;6.67;2.00;;;;;22.01;42.89;100216.50;4975973;28;45321;-76
2023/11/12 10:52:22;;;;;;;;;4.33;1.67;;;;;22.03;42.70;100225.06;4975721;28;45456;-75
2023/11/12 10:54:50;;;;;;;;;1.00;1.00;;;;;22.04;42.82;100232.00;4975571;28;45338;-76
2023/11/12 10:57:18;;;;;;;;;0.33;0.00;;;;;22.04;42.39;100225.91;4975445;28;45392;-76
2023/11/12 10:59:44;;;;;;;;;3.00;0.67;;;;;21.72;42.13;100192.69;4975782;28;45358;-73
2023/11/12 11:02:17;;;;;;;;;2.67;1.67;;;;;22.03;42.51;100248.09;4975742;28;45310;-76
2023/11/12 11:04:45;;;;;;;;;4.33;1.33;;;;;21.98;42.39;100245.22;4975717;28;46356;-76
2023/11/12 11:07:10;;;;;;;;;0.00;0.00;;;;;21.93;43.03;100238.69;4975654;28;45404;-74
2023/11/12 11:09:36;;;;;;;;;0.67;0.67;;;;;21.92;43.04;100229.09;4975712;28;45448;-75
2023/11/12 11:12:01;;;;;;;;;1.00;1.00;;;;;22.02;42.94;100246.44;4990567;28;45327;-74
2023/11/12 11:14:31;;;;;;;;;1.00;1.00;;;;;22.02;42.48;100249.91;4975350;28;46275;-74
2023/11/12 11:16:57;;;;;;;;;0.67;0.00;;;;;21.93;42.38;100236.03;4975506;28;45459;-75
2023/11/12 11:19:44;;;;;;;;;1.67;0.67;;;;;22.01;42.44;100248.28;4975446;28;45494;-75
2023/11/12 11:22:26;;;;;;;;;2.00;1.00;;;;;22.01;42.60;100263.38;4958720;28;45356;-75
2023/11/12 11:24:58;;;;;;;;;0.33;0.33;;;;;22.01;42.54;100261.53;4959040;28;46638;-75
2023/11/12 11:27:25;;;;;;;;;3.00;1.00;;;;;22.01;42.72;100263.38;4958646;28;45851;-74
2023/11/12 11:30:12;;;;;;;;;0.67;0.67;;;;;21.98;42.67;100266.41;4959481;28;45481;-75
2023/11/12 11:32:54;;;;;;;;;1.00;1.00;;;;;21.95;42.79;100257.00;4958974;28;45415;-76
2023/11/12 11:35:21;;;;;;;;;0.00;0.00;;;;;21.98;42.35;100272.53;4959110;28;46448;-76
2023/11/12 11:38:05;;;;;;;;;2.00;1.00;;;;;22.00;42.45;100286.38;4959048;28;45412;-75
2023/11/12 11:40:32;;;;;;;;;1.67;1.00;;;;;21.98;42.88;100279.66;4959105;28;45400;-75
2023/11/12 11:43:25;;;;;;;;;0.67;0.00;;;;;22.01;42.36;100280.09;4958648;28;45321;-75
2023/11/12 11:46:10;;;;;;;;;0.67;0.67;;;;;22.00;42.79;100282.91;4958723;28;46627;-74
2023/11/12 11:48:56;;;;;;;;;0.00;0.00;;;;;21.96;42.78;100278.00;4977052;28;45519;-75
2023/11/12 11:51:32;;;;;;;;;0.00;0.00;;;;;21.99;42.82;100279.44;4974390;28;45487;-75
2023/11/12 11:54:03;;;;;;;;;0.67;0.67;;;;;22.00;42.43;100293.50;4978123;28;45409;-75
2023/11/12 11:56:30;;;;;;;;;2.33;1.00;;;;;22.00;42.39;100293.50;4977810;28;47041;-75
2023/11/12 11:58:55;;;;;;;;;0.00;0.00;;;;;21.90;42.81;100272.66;4978174;28;45643;-75
2023/11/12 12:01:20;;;;;;;;;1.33;0.33;;;;;21.90;42.73;100275.31;4977096;28;45263;-74
2023/11/12 12:03:46;;;;;;;;;1.33;1.33;;;;;22.00;42.84;100290.84;4978305;28;45400;-75
2023/11/12 12:06:21;;;;;;;;;1.33;1.00;;;;;22.01;42.46;100295.16;4978023;28;45989;-76
2023/11/12 12:08:55;;;;;;;;;0.00;0.00;;;;;21.96;42.41;100266.59;4978258;28;45433;-76
2023/11/12 12:11:24;;;;;;;;;1.00;1.00;;;;;21.97;42.70;100273.53;4977747;28;45386;-76
2023/11/12 12:14:02;;;;;;;;;0.00;0.00;;;;;22.00;42.65;100282.91;4978131;28;45381;-76
2023/11/12 12:16:35;;;;;;;;;0.33;0.33;;;;;21.96;42.91;100278.00;4977832;28;45318;-75
2023/11/12 12:19:01;;;;;;;;;1.00;1.00;;;;;21.88;42.74;100272.03;4976577;28;45818;-76
2023/11/12 12:21:28;;;;;;;;;1.00;0.00;;;;;21.99;42.61;100290.03;4978064;28;45311;-76
2023/11/12 12:23:54;;;;;;;;;1.00;0.00;;;;;21.93;42.27;100272.28;4977812;28;45293;-76
2023/11/12 12:26:24;;;;;;;;;0.67;0.67;;;;;22.01;42.39;100289.84;4977330;28;47336;-75
2023/11/12 12:28:53;;;;;;;;;0.67;0.67;;;;;21.99;42.75;100294.53;4977811;28;45393;-76
2023/11/12 12:31:18;;;;;;;;;1.00;1.00;;;;;22.03;42.14;100290.47;4977585;28;45320;-76
2023/11/12 12:34:06;;;;;;;;;0.00;0.00;;;;;21.94;42.64;100287.97;4977948;28;45246;-76
2023/11/12 12:36:34;;;;;;;;;1.33;0.00;;;;;22.03;42.69;100304.53;4977584;28;47444;-75
2023/11/12 12:39:03;;;;;;;;;1.67;0.00;;;;;22.04;42.40;100295.56;4977227;28;45420;-76
2023/11/12 12:41:29;;;;;;;;;2.00;1.00;;;;;22.02;42.71;100281.69;4977762;28;45346;-76
2023/11/12 12:43:56;;;;;;;;;1.00;0.33;;;;;21.96;42.74;100269.25;4977349;28;45315;-73
2023/11/12 12:46:22;;;;;;;;;1.00;1.00;;;;;22.06;42.67;100295.38;4977165;28;45453;-76
2023/11/12 12:48:55;;;;;;;;;1.33;1.00;;;;;22.05;42.85;100299.88;4977471;28;45545;-75
2023/11/12 12:51:22;;;;;;;;;0.00;0.00;;;;;22.06;42.88;100313.94;4977530;28;45469;-76
2023/11/12 12:53:51;;;;;;;;;1.33;1.33;;;;;21.71;42.72;100256.41;4977016;28;45336;-76
2023/11/12 12:56:17;;;;;;;;;0.67;0.67;;;;;21.96;42.22;100299.19;4977236;28;45278;-73
2023/11/12 12:58:46;;;;;;;;;0.00;0.00;;;;;22.07;42.77;100302.31;4976102;28;45351;-76
2023/11/12 13:01:12;;;;;;;;;2.00;1.00;;;;;21.97;42.02;100284.13;4977516;28;45294;-75
2023/11/12 13:03:41;;;;;;;;;0.33;0.33;;;;;22.06;42.66;100309.47;4977159;28;45437;-76
2023/11/12 13:06:09;;;;;;;;;0.67;0.67;;;;;21.98;42.73;100300.84;4976976;28;46676;-76
2023/11/12 13:08:34;;;;;;;;;1.33;1.33;;;;;22.05;42.35;100331.66;4976679;28;45330;-75
2023/11/12 13:11:00;;;;;;;;;2.33;1.67;;;;;21.89;42.57;100308.91;4977232;28;45540;-76
2023/11/12 13:13:27;;;;;;;;;0.33;0.33;;;;;21.92;42.14;100315.66;4977199;28;45449;-75
2023/11/12 13:15:53;;;;;;;;;2.00;2.00;;;;;22.07;42.17;100332.28;4976959;28;46353;-75
2023/11/12 13:18:19;;;;;;;;;1.00;1.00;;;;;21.96;42.65;100301.03;4976934;28;45313;-75
2023/11/12 13:20:45;;;;;;;;;0.67;0.67;;;;;22.04;42.17;100324.72;4977026;28;45357;-75
2023/11/12 13:23:10;;;;;;;;;0.67;0.33;;;;;21.92;42.38;100305.88;4975423;28;45258;-76
2023/11/12 13:25:36;;;;;;;;;1.00;1.00;;;;;21.84;41.99;100290.94;4976621;28;46937;-75
2023/11/12 13:28:02;;;;;;;;;0.67;0.67;;;;;22.07;42.29;100326.97;4976868;28;45383;-75
2023/11/12 13:30:28;;;;;;;;;1.00;1.00;;;;;22.06;42.52;100335.97;4977023;28;45230;-75
2023/11/12 13:32:54;;;;;;;;;1.33;0.00;;;;;21.92;42.86;100315.66;4977057;28;45401;-75
2023/11/12 13:35:20;;;;;;;;;1.67;1.67;;;;;21.98;42.54;100328.16;4976796;28;45378;-75
2023/11/12 13:37:45;;;;;;;;;1.67;0.67;;;;;21.96;42.58;100324.88;4976476;28;45705;-75
2023/11/12 13:40:14;;;;;;;;;3.00;2.00;;;;;22.07;42.63;100352.66;4976741;28;45386;-75
2023/11/12 13:42:50;;;;;;;;;2.33;1.33;;;;;21.94;42.93;100334.81;4976619;28;45535;-76
2023/11/12 13:45:18;;;;;;;;;1.00;1.00;;;;;21.96;42.14;100343.41;4976030;28;46111;-73
2023/11/12 13:47:43;;;;;;;;;1.00;1.00;;;;;22.07;42.71;100352.66;4976318;28;45409;-76
2023/11/12 13:50:13;;;;;;;;;3.00;1.00;;;;;22.09;42.18;100357.75;4976693;28;45317;-73
2023/11/12 13:52:39;;;;;;;;;1.00;1.00;;;;;22.10;42.70;100356.75;4976331;28;45473;-75
2023/11/12 13:55:06;;;;;;;;;1.00;1.00;;;;;22.07;42.65;100350.81;4975132;28;46223;-76
2023/11/12 13:57:34;;;;;;;;;0.67;0.67;;;;;22.02;42.36;100339.97;4976409;28;45445;-76
2023/11/12 14:00:00;;;;;;;;;1.00;1.00;;;;;22.10;42.82;100354.09;4976475;28;45377;-76
2023/11/12 14:02:26;;;;;;;;;1.00;1.00;;;;;22.11;42.26;100353.09;4976603;28;45426;-75
2023/11/12 14:04:51;;;;;;;;;1.00;1.00;;;;;22.10;42.59;100365.50;4976189;28;45306;-75
2023/11/12 14:07:17;;;;;;;;;0.33;0.33;;;;;22.10;42.18;100375.28;4974874;28;45470;-75
2023/11/12 14:09:47;;;;;;;;;1.00;1.00;;;;;21.98;42.78;100367.06;4976422;28;45381;-75
2023/11/12 14:12:13;;;;;;;;;0.67;0.67;;;;;22.03;42.48;100362.81;4976503;28;45417;-74
2023/11/12 14:14:39;;;;;;;;;1.67;1.67;;;;;22.09;42.11;100382.44;4976168;28;45351;-75
2023/11/12 14:17:07;;;;;;;;;2.00;1.00;;;;;21.97;42.34;100360.94;4976044;28;45312;-75
2023/11/12 14:19:35;;;;;;;;;1.67;1.00;;;;;22.05;42.81;100379.34;4976435;28;45395;-75
2023/11/12 14:22:01;;;;;;;;;3.67;2.67;;;;;21.98;42.38;100390.88;4975763;28;45373;-75
2023/11/12 14:24:27;;;;;;;;;1.00;1.00;;;;;22.06;42.83;100407.47;4975930;28;46339;-75
2023/11/12 14:26:53;;;;;;;;;1.00;1.00;;;;;21.92;42.45;100379.22;4976103;28;45360;-75
2023/11/12 14:29:19;;;;;;;;;0.00;0.00;;;;;22.01;42.81;100401.13;4976223;28;45411;-75
2023/11/12 14:31:46;;;;;;;;;1.00;1.00;;;;;22.06;42.72;100407.47;4976125;28;45242;-75
2023/11/12 14:34:12;;;;;;;;;1.00;1.00;;;;;21.99;42.40;100403.94;4975893;28;46308;-75
2023/11/12 14:36:38;;;;;;;;;1.00;1.00;;;;;21.92;42.83;100373.94;4975570;28;45405;-74
2023/11/12 14:39:08;;;;;;;;;1.00;1.00;;;;;22.03;42.44;100389.31;4976182;28;45306;-75
2023/11/12 14:41:34;;;;;;;;;1.00;1.00;;;;;21.95;42.79;100382.31;4975908;28;45532;-76
2023/11/12 14:44:00;;;;;;;;;1.00;1.00;;;;;21.79;42.74;100351.59;4975417;28;47036;-75
2023/11/12 14:46:25;;;;;;;;;4.00;1.33;;;;;22.04;42.94;100376.91;4975544;28;45417;-75
2023/11/12 14:48:51;;;;;;;;;1.33;1.33;;;;;22.03;42.46;100391.13;4975910;28;45374;-76
2023/11/12 14:51:17;;;;;;;;;1.33;1.33;;;;;22.06;42.42;100390.75;4975689;28;45348;-75
2023/11/12 14:53:43;;;;;;;;;4.33;1.00;;;;;22.05;42.83;100374.03;4975596;28;46025;-75
2023/11/12 14:56:14;;;;;;;;;1.00;1.00;;;;;21.88;42.94;100365.56;4977132;28;45404;-75
2023/11/12 14:58:40;;;;;;;;;1.00;1.00;;;;;21.95;42.61;100378.84;4979113;28;45382;-75
2023/11/12 15:01:05;;;;;;;;;1.33;0.67;;;;;22.04;42.85;100393.59;4979328;28;45439;-76
2023/11/12 15:03:31;;;;;;;;;1.33;1.00;;;;;22.05;42.38;100400.53;4978900;28;46832;-75
2023/11/12 15:05:57;;;;;;;;;1.00;1.00;;;;;22.00;42.84;100395.00;4978687;28;45980;-76
2023/11/12 15:08:22;;;;;;;;;2.00;2.00;;;;;21.89;42.78;100380.44;4979298;28;45392;-74
2023/11/12 15:10:47;;;;;;;;;2.00;2.00;;;;;22.02;42.31;100403.56;4979173;28;45413;-75
2023/11/12 15:13:13;;;;;;;;;3.00;2.00;;;;;22.03;42.77;100409.69;4978951;28;45448;-76
2023/11/12 15:15:38;;;;;;;;;1.67;1.67;;;;;21.89;43.00;100375.13;4978887;28;45459;-76
2023/11/12 15:18:03;;;;;;;;;1.33;1.33;;;;;21.90;42.48;100384.72;4979095;28;45452;-75
2023/11/12 15:20:29;;;;;;;;;1.00;1.00;;;;;22.04;42.42;100406.03;4978928;28;45400;-76
2023/11/12 15:22:54;;;;;;;;;2.00;2.00;;;;;21.99;43.04;100392.53;4978708;28;47265;-74
2023/11/12 15:25:20;;;;;;;;;3.00;3.00;;;;;21.96;42.74;100381.28;4978654;28;45372;-78
2023/11/12 15:27:48;;;;;;;;;3.00;2.00;;;;;21.94;42.82;100380.66;4974167;28;45515;-76
2023/11/12 15:30:14;;;;;;;;;2.33;2.00;;;;;22.06;42.75;100398.72;4976179;28;45488;-73
2023/11/12 15:32:43;;;;;;;;;3.00;1.67;;;;;22.05;42.75;100397.06;4963629;28;47162;-77
2023/11/12 15:35:16;;;;;;;;;1.33;0.00;;;;;22.07;42.75;100392.38;4966326;28;45346;-81
2023/11/12 15:37:42;;;;;;;;;2.67;1.33;;;;;22.11;43.31;100398.13;4967716;28;45453;-79
2023/11/12 15:40:17;;;;;;;;;1.67;1.67;;;;;22.13;43.19;100398.75;4971050;28;45432;-79
2023/11/12 15:42:47;;;;;;;;;2.67;2.33;;;;;22.04;43.53;100379.53;4964666;28;47013;-81
2023/11/12 15:45:15;;;;;;;;;2.33;2.00;;;;;22.18;43.12;100399.00;4965395;28;45457;-77
2023/11/12 15:47:42;;;;;;;;;2.33;1.67;;;;;22.15;43.51;100397.56;4987174;28;45448;-76
2023/11/12 15:50:11;;;;;;;;;1.67;1.67;;;;;22.26;43.10;100400.69;4975939;28;45381;-76
2023/11/12 15:52:39;;;;;;;;;3.00;3.00;;;;;22.27;43.63;100404.97;4976002;28;45485;-76
2023/11/12 15:55:07;;;;;;;;;2.33;2.00;;;;;22.10;44.00;100392.00;4977630;28;45298;-77
2023/11/12 15:57:34;;;;;;;;;3.00;3.00;;;;;22.29;43.31;100405.59;4975226;28;45418;-76
2023/11/12 15:59:59;;;;;;;;;2.00;2.00;;;;;22.31;43.79;100419.47;4976404;28;45380;-75
2023/11/12 16:02:25;;;;;;;;;1.33;1.33;;;;;22.20;43.77;100385.56;4963796;28;46259;-76
2023/11/12 16:04:50;;;;;;;;;4.00;2.33;;;;;22.01;43.47;100356.91;4977249;28;45560;-76
2023/11/12 16:07:16;;;;;;;;;2.00;2.00;;;;;22.33;43.95;100404.19;4976331;28;45559;-80
2023/11/12 16:09:41;;;;;;;;;2.33;2.33;;;;;22.35;43.88;100417.28;4976433;28;61052;-75
2023/11/12 16:12:07;;;;;;;;;2.00;2.00;;;;;22.18;43.40;100388.41;4976199;28;46361;-77
2023/11/12 16:14:33;;;;;;;;;2.00;2.00;;;;;22.24;43.59;100398.25;4977398;28;45894;-76
2023/11/12 16:16:58;;;;;;;;;2.00;2.00;;;;;22.37;43.71;100413.41;4975036;28;45343;-75
2023/11/12 16:19:23;;;;;;;;;2.33;2.33;;;;;22.33;43.92;100395.44;4976420;28;45338;-76
2023/11/12 16:21:48;;;;;;;;;4.00;3.00;;;;;21.97;43.77;100342.38;4974518;28;55145;-74
2023/11/12 16:24:15;;;;;;;;;2.00;2.00;;;;;22.21;43.72;100385.38;4975057;28;54806;-76
2023/11/12 16:26:44;;;;;;;;;2.00;2.00;;;;;22.06;43.83;100364.28;4974696;28;45494;-76
2023/11/12 16:29:09;;;;;;;;;4.00;3.00;;;;;22.40;44.26;100406.91;4972879;28;45365;-76
2023/11/12 16:31:35;;;;;;;;;2.33;2.33;;;;;22.28;44.20;100388.06;4974329;28;45825;-80
2023/11/12 16:34:02;;;;;;;;;1.67;1.67;;;;;22.36;44.29;100395.88;4974025;28;45509;-75
2023/11/12 16:36:28;;;;;;;;;2.33;2.00;;;;;22.39;44.37;100399.97;4962258;28;45565;-75
2023/11/12 16:38:53;;;;;;;;;3.33;3.33;;;;;22.26;44.47;100384.78;4963157;28;45385;-75
2023/11/12 16:41:18;;;;;;;;;2.33;1.33;;;;;22.43;44.41;100409.16;4966612;28;47293;-74
2023/11/12 16:43:44;;;;;;;;;4.67;3.67;;;;;22.43;43.98;100417.09;4962150;28;45336;-74
2023/11/12 16:46:10;;;;;;;;;2.67;2.33;;;;;22.40;44.26;100414.88;4973183;28;45565;-76
2023/11/12 16:48:36;;;;;;;;;4.33;2.67;;;;;22.35;44.48;100409.31;4973171;28;45550;-75
2023/11/12 16:51:01;;;;;;;;;7.00;3.67;;;;;22.04;44.45;100359.16;4967107;28;46119;-76
2023/11/12 16:53:26;;;;;;;;;2.67;2.00;;;;;22.46;43.83;100424.69;4972454;28;45485;-76
2023/11/12 16:55:53;;;;;;;;;2.33;2.00;;;;;22.47;44.07;100418.38;4960701;28;45350;-76
2023/11/12 16:58:19;;;;;;;;;3.33;2.00;;;;;22.43;44.50;100418.97;4960393;28;45872;-75
2023/11/12 17:00:44;;;;;;;;;3.00;3.00;;;;;22.46;44.39;100423.84;4960119;28;45994;-76
2023/11/12 17:03:09;;;;;;;;;4.67;2.67;;;;;22.40;44.33;100418.31;4965829;28;45487;-74
2023/11/12 17:05:35;;;;;;;;;3.33;3.33;;;;;22.45;43.66;100431.00;4976232;28;45422;-75
2023/11/12 17:08:04;;;;;;;;;6.67;3.33;;;;;22.33;44.21;100412.16;4976603;28;45545;-75
2023/11/12 17:10:29;;;;;;;;;4.00;2.00;;;;;22.35;43.96;100418.06;4975183;28;47317;-75
2023/11/12 17:12:54;;;;;;;;;3.00;3.00;;;;;22.41;44.55;100429.75;4976271;28;45390;-75
2023/11/12 17:15:20;;;;;;;;;5.33;4.00;;;;;22.39;44.02;100419.34;4976414;28;45409;-76
2023/11/12 17:17:46;;;;;;;;;5.00;2.33;;;;;22.42;44.50;100426.09;4976362;28;45415;-75
2023/11/12 17:20:12;;;;;;;;;2.67;2.00;;;;;22.45;43.97;100435.47;4976072;28;46236;-75
2023/11/12 17:22:41;;;;;;;;;3.33;2.00;;;;;22.45;44.11;100432.84;4977012;28;45442;-74
2023/11/12 17:25:09;;;;;;;;;4.33;2.00;;;;;22.47;44.63;100425.50;4976525;28;45425;-74
2023/11/12 17:27:35;;;;;;;;;6.33;4.00;;;;;22.46;44.48;100415.91;4977061;28;45325;-74
2023/11/12 17:30:01;;;;;;;;;5.67;2.00;;;;;22.35;44.34;100385.47;4976007;28;45498;-75
2023/11/12 17:32:27;;;;;;;;;4.67;2.67;;;;;22.20;44.92;100367.03;4957480;28;45368;-76
2023/11/12 17:34:53;;;;;;;;;6.33;5.00;;;;;22.45;44.70;100407.16;4974175;28;45804;-76
2023/11/12 17:37:18;;;;;;;;;2.33;2.33;;;;;22.50;44.80;100412.69;4991533;28;45522;-76
2023/11/12 17:39:44;;;;;;;;;4.00;2.00;;;;;22.22;44.44;100367.66;4975867;28;45675;-76
2023/11/12 17:42:11;;;;;;;;;11.00;7.33;;;;;22.50;44.60;100412.69;4980860;28;45480;-75
2023/11/12 17:44:37;;;;;;;;;8.67;6.00;;;;;22.38;44.80;100385.88;4976309;28;45500;-78
2023/11/12 17:47:02;;;;;;;;;10.00;6.00;;;;;22.36;45.24;100368.53;4976254;28;45443;-76
2023/11/12 17:49:27;;;;;;;;;7.67;6.00;;;;;22.49;44.65;100392.47;4976274;28;46404;-75
2023/11/12 17:51:53;;;;;;;;;6.33;4.33;;;;;22.37;45.17;100383.44;4976556;28;45313;-75
2023/11/12 17:54:19;;;;;;;;;5.00;5.00;;;;;22.48;44.63;100392.69;4976503;28;45380;-75
2023/11/12 17:56:46;;;;;;;;;6.00;5.00;;;;;22.46;45.06;100398.16;4976711;28;45450;-75
2023/11/12 17:59:11;;;;;;;;;4.33;4.33;;;;;22.39;44.74;100400.78;4975959;28;46525;-76
2023/11/12 18:01:39;;;;;;;;;5.67;4.33;;;;;22.35;44.75;100390.78;4976285;28;45463;-75
2023/11/12 18:04:04;;;;;;;;;4.00;3.00;;;;;22.44;44.73;100396.72;4976655;28;45370;-75
2023/11/12 18:06:32;;;;;;;;;4.00;3.00;;;;;22.43;44.85;100403.84;4976319;28;45298;-74
2023/11/12 18:08:58;;;;;;;;;4.33;4.33;;;;;22.43;44.61;100405.72;4976295;28;47016;-75
2023/11/12 18:11:23;;;;;;;;;4.67;3.00;;;;;22.43;44.47;100403.06;4976374;28;45250;-75
2023/11/12 18:13:48;;;;;;;;;4.00;3.00;;;;;22.38;44.82;100399.13;4976077;28;45407;-75
2023/11/12 18:16:14;;;;;;;;;3.00;3.00;;;;;22.42;44.48;100419.97;4976510;28;45211;-75
2023/11/12 18:18:40;;;;;;;;;2.00;2.00;;;;;22.38;44.70;100416.88;4974953;28;45898;-76
2023/11/12 18:21:06;;;;;;;;;4.67;3.00;;;;;22.37;44.40;100424.03;4976234;28;45441;-75
2023/11/12 18:23:33;;;;;;;;;5.33;4.00;;;;;22.33;44.52;100421.94;4976141;28;45731;-75
2023/11/12 18:25:59;;;;;;;;;4.00;3.67;;;;;22.37;44.77;100428.50;4976166;28;45448;-75
2023/11/12 18:28:25;;;;;;;;;3.00;3.00;;;;;22.24;44.55;100392.94;4975704;28;46287;-75
2023/11/12 18:30:53;;;;;;;;;2.33;2.33;;;;;22.18;44.46;100402.47;4978330;28;45408;-75
2023/11/12 18:33:18;;;;;;;;;4.00;3.00;;;;;22.33;44.56;100435.19;4979740;28;45293;-76
2023/11/12 18:35:44;;;;;;;;;6.00;3.00;;;;;22.33;44.90;100424.59;4979657;28;45254;-76
2023/11/12 18:38:11;;;;;;;;;3.33;3.00;;;;;22.36;44.21;100432.16;4979483;28;46225;-75
2023/11/12 18:40:37;;;;;;;;;4.67;3.67;;;;;22.35;44.23;100426.03;4979880;28;45317;-72
2023/11/12 18:43:06;;;;;;;;;3.67;3.33;;;;;22.20;44.30;100401.47;4979192;28;45580;-75
2023/11/12 18:45:32;;;;;;;;;4.00;3.00;;;;;22.27;44.18;100427.00;4979249;28;45621;-75
2023/11/12 18:48:05;;;;;;;;;4.00;2.67;;;;;22.21;44.30;100425.13;4979075;28;46454;-75
2023/11/12 18:50:32;;;;;;;;;2.00;2.00;;;;;22.20;44.54;100433.28;4979454;28;45369;-76
2023/11/12 18:52:57;;;;;;;;;5.00;2.00;;;;;22.34;44.31;100453.56;4979203;28;45577;-75
2023/11/12 18:55:23;;;;;;;;;4.00;2.33;;;;;22.30;44.78;100447.00;4979305;28;45459;-75
2023/11/12 18:57:49;;;;;;;;;6.33;2.33;;;;;22.20;44.26;100433.28;4979063;28;46022;-75
2023/11/12 19:00:15;;;;;;;;;6.33;4.00;;;;;22.33;44.11;100461.72;4979217;28;45420;-75
2023/11/12 19:02:41;;;;;;;;;2.33;2.33;;;;;22.16;44.62;100446.06;4979038;28;46024;-75
2023/11/12 19:05:08;;;;;;;;;5.67;3.33;;;;;22.29;44.30;100463.91;4979075;28;45269;-75
2023/11/12 19:07:34;;;;;;;;;4.00;3.00;;;;;22.31;44.70;100463.69;4979151;28;45425;-76
2023/11/12 19:10:00;;;;;;;;;4.67;4.33;;;;;22.22;44.43;100455.91;4979003;28;45412;-75
2023/11/12 19:12:25;;;;;;;;;5.33;3.67;;;;;22.18;44.32;100439.56;4978742;28;45369;-75
2023/11/12 19:14:51;;;;;;;;;4.00;2.33;;;;;22.17;44.54;100437.13;4979104;28;45337;-75
2023/11/12 19:17:16;;;;;;;;;8.33;3.33;;;;;22.28;44.75;100464.91;4978822;28;47517;-76
2023/11/12 19:19:42;;;;;;;;;4.67;3.00;;;;;22.18;44.61;100442.22;4978798;28;45291;-75
2023/11/12 19:22:07;;;;;;;;;2.33;2.33;;;;;22.27;44.51;100461.47;4978977;28;45222;-75
2023/11/12 19:24:37;;;;;;;;;2.00;0.00;;;;;22.16;44.29;100443.41;4977583;28;45243;-74
2023/11/12 19:27:03;;;;;;;;;3.00;1.67;;;;;22.15;44.24;100439.13;4978497;28;46901;-76
2023/11/12 19:29:28;;;;;;;;;6.00;3.33;;;;;22.27;44.20;100461.47;4978527;28;45412;-73
2023/11/12 19:31:56;;;;;;;;;4.67;2.67;;;;;22.05;44.43;100434.97;4978862;28;45449;-74
2023/11/12 19:34:23;;;;;;;;;4.00;2.33;;;;;22.13;44.57;100465.00;4978746;28;45456;-75
2023/11/12 19:36:49;;;;;;;;;4.33;2.33;;;;;22.18;44.46;100484.63;4978579;28;46927;-75
2023/11/12 19:39:16;;;;;;;;;4.67;3.00;;;;;22.26;44.38;100483.66;4978599;28;45333;-75
2023/11/12 19:41:42;;;;;;;;;1.67;1.67;;;;;22.22;44.59;100500.13;4977669;28;45392;-75
2023/11/12 19:44:08;;;;;;;;;4.67;3.00;;;;;22.24;44.10;100504.25;4978382;28;45313;-75
2023/11/12 19:46:33;;;;;;;;;2.67;2.67;;;;;22.12;44.50;100490.66;4978231;28;46998;-75
2023/11/12 19:48:59;;;;;;;;;3.67;3.67;;;;;21.96;43.79;100476.66;4978263;28;45441;-75
2023/11/12 19:51:26;;;;;;;;;3.00;2.67;;;;;22.26;44.65;100530.53;4978663;28;45369;-75
2023/11/12 19:53:52;;;;;;;;;4.00;3.00;;;;;22.27;44.37;100532.19;4977971;28;45374;-75
2023/11/12 19:56:17;;;;;;;;;4.67;3.33;;;;;22.01;44.02;100496.47;4978182;28;46117;-75
2023/11/12 19:58:44;;;;;;;;;3.33;2.00;;;;;22.20;44.28;100520.72;4978214;28;45294;-75
2023/11/12 20:01:09;;;;;;;;;1.33;1.33;;;;;22.25;44.16;100526.25;4978353;28;45246;-75
2023/11/12 20:03:35;;;;;;;;;5.67;4.00;;;;;22.24;43.95;100530.75;4977124;28;45267;-75
2023/11/12 20:06:00;;;;;;;;;1.67;1.67;;;;;22.06;44.35;100507.31;4977600;28;55991;-76
2023/11/12 20:08:25;;;;;;;;;2.33;1.33;;;;;22.22;43.87;100543.38;4978104;28;45928;-75
2023/11/12 20:10:51;;;;;;;;;3.00;2.67;;;;;22.19;44.00;100551.69;4978446;28;45709;-75
2023/11/12 20:13:16;;;;;;;;;2.00;2.00;;;;;22.14;44.37;100543.47;4978303;28;45294;-75
2023/11/12 20:15:42;;;;;;;;;1.00;1.00;;;;;22.23;44.50;100568.84;4978066;28;47028;-75
2023/11/12 20:18:09;;;;;;;;;2.00;2.00;;;;;22.13;44.49;100549.78;4977985;28;45357;-75
2023/11/12 20:20:38;;;;;;;;;4.00;2.33;;;;;22.24;44.54;100582.91;4978347;28;45403;-76
2023/11/12 20:23:10;;;;;;;;;4.00;2.00;;;;;22.24;44.21;100580.25;4977719;28;45351;-75
2023/11/12 20:25:35;;;;;;;;;2.67;2.67;;;;;22.23;44.03;100582.09;4977784;28;47292;-75
2023/11/12 20:28:10;;;;;;;;;3.33;3.00;;;;;22.24;44.56;100574.97;4977729;28;47512;-75
2023/11/12 20:30:39;;;;;;;;;2.00;2.00;;;;;22.23;44.01;100590.03;4977858;28;45440;-75
2023/11/12 20:33:04;;;;;;;;;2.00;2.00;;;;;22.24;44.35;100598.81;4977979;28;45408;-75
2023/11/12 20:35:29;;;;;;;;;2.33;2.33;;;;;22.23;44.10;100597.97;4977710;28;46222;-75
2023/11/12 20:37:56;;;;;;;;;2.00;2.00;;;;;22.06;44.29;100582.34;4977528;28;45401;-75
2023/11/12 20:40:21;;;;;;;;;4.00;1.67;;;;;22.22;44.44;100622.84;4977812;28;45463;-75
2023/11/12 20:42:48;;;;;;;;;1.00;1.00;;;;;22.23;44.44;100623.66;4977364;28;45384;-75
2023/11/12 20:45:16;;;;;;;;;1.67;1.67;;;;;22.22;44.30;100644.06;4977419;28;45484;-75
2023/11/12 20:47:44;;;;;;;;;5.00;3.00;;;;;22.22;44.52;100654.66;4976134;28;45437;-75
2023/11/12 20:50:10;;;;;;;;;5.00;3.00;;;;;22.21;44.41;100668.06;4977674;28;45290;-76
2023/11/12 20:52:36;;;;;;;;;5.00;4.33;;;;;22.10;44.63;100654.28;4977161;28;45223;-75
2023/11/12 20:55:01;;;;;;;;;2.33;2.33;;;;;22.18;44.55;100678.03;4977382;28;46232;-75
2023/11/12 20:57:28;;;;;;;;;3.00;2.00;;;;;21.89;43.93;100650.56;4977396;28;45451;-75
2023/11/12 20:59:58;;;;;;;;;2.00;2.00;;;;;22.05;44.02;100683.19;4977716;28;45537;-75
2023/11/12 21:02:25;;;;;;;;;2.33;2.00;;;;;22.22;44.04;100723.56;4977511;28;45214;-75
2023/11/12 21:04:50;;;;;;;;;3.00;2.00;;;;;22.22;44.56;100758.00;4975876;28;46294;-75
2023/11/12 21:07:16;;;;;;;;;1.67;1.67;;;;;22.14;44.38;100750.97;4975709;28;45380;-76